Tecumseh — WTW9257 — position and weather

sailwx.info

Track history (hours):
 
Tides and Currents Weather Stations Pressure Air Temp Water Temp Dewpoint Dewpoint Depression Visibility Wind Speed Wind Dir Waves Ship Positions

Tecumseh

Owner: Sause Bros. Inc., COOS BAY, OR. More information available from US FCC via Universal Licensing System and Coast Guard Vessel Documentation Center.

Last reported at 2016-Jul-25 16:06 UTC. Time now 2016-Jul-26 21:48 UTC.
Position N 38°32' W 123°47'.

Length 90 m; draft 4.8 m.

Type: Towing. MMSI: 367133160.

Date/timePositionNaut miles runAvg speedWind from/ knotsBaromVisibWave heightAir tempDewpointWater temp
2016-Jul-25 16:06N 38°32' W 123°47'3 5.0
2016-Jul-25 15:32N 38°30' W 123°45'6 5.1
2016-Jul-25 14:23N 38°26' W 123°40'4 5.1
2016-Jul-25 13:33N 38°22' W 123°36'5 5.3
2016-Jul-25 12:33N 38°19' W 123°31'5 4.9
2016-Jul-25 11:33N 38°15' W 123°27'5 5.1
2016-Jul-25 10:33N 38°12' W 123°22'5 5.2
2016-Jul-25 09:33N 38°08' W 123°18'6 5.6
2016-Jul-25 08:32N 38°03' W 123°13'6 5.6
2016-Jul-25 07:33N 37°59' W 123°09'6 5.9
2016-Jul-25 06:33N 37°56' W 123°02'6 6.5
2016-Jul-25 05:33N 37°53' W 122°55'14 6.9
2016-Jul-25 03:33N 37°46' W 122°40'9 8.6
2016-Jul-25 02:33N 37°49' W 122°30'6 6.1
2016-Jul-25 01:33N 37°54' W 122°26'0 0.1
2016-Jul-25 00:30N 37°54' W 122°26'0 0.0
2016-Jul-24 23:30N 37°54' W 122°26'0 0.0
2016-Jul-24 21:18N 37°54' W 122°26'0 0.0
2016-Jul-24 20:30N 37°54' W 122°26'0 0.0
2016-Jul-24 19:27N 37°54' W 122°26'0 0.1
2016-Jul-24 18:34N 37°54' W 122°26'0 0.1
2016-Jul-24 17:32N 37°54' W 122°26'0 0.1
2016-Jul-24 16:34N 37°54' W 122°26'1 0.7
2016-Jul-24 15:33N 37°55' W 122°26'0 0.3
2016-Jul-24 14:34N 37°55' W 122°26'7 6.5
2016-Jul-24 13:34N 37°49' W 122°29'8 7.5
2016-Jul-24 12:30N 37°43' W 122°35'1010.3
2016-Jul-24 11:33N 37°33' W 122°35'1010.3
2016-Jul-24 10:33N 37°23' W 122°32'1010.3
2016-Jul-24 09:34N 37°13' W 122°28'1010.2
2016-Jul-24 08:33N 37°04' W 122°23'1010.1
2016-Jul-24 07:33N 36°55' W 122°17'10 9.9
2016-Jul-24 06:33N 36°46' W 122°12'1010.0
2016-Jul-24 05:33N 36°37' W 122°07'1010.0
2016-Jul-24 04:31N 36°27' W 122°02'9 9.6
2016-Jul-24 03:33N 36°18' W 121°58'10 9.6
2016-Jul-24 02:33N 36°12' W 121°49'1010.5
2016-Jul-24 01:33N 36°04' W 121°40'1310.9
2016-Jul-24 00:24N 35°54' W 121°31'910.7
2016-Jul-23 23:33N 35°47' W 121°25'1010.5
2016-Jul-23 22:33N 35°38' W 121°18'1110.7
2016-Jul-23 21:34N 35°29' W 121°11'1110.9
2016-Jul-23 20:33N 35°20' W 121°03'2210.6
2016-Jul-23 18:26N 35°02' W 120°46'910.7
2016-Jul-23 17:34N 34°53' W 120°44'1110.9
2016-Jul-23 16:34N 34°43' W 120°41'1110.8
2016-Jul-23 15:33N 34°32' W 120°38'1111.1
2016-Jul-23 14:33N 34°25' W 120°27'1212.2
2016-Jul-23 13:33N 34°20' W 120°13'1211.5
2016-Jul-23 12:33N 34°15' W 120°01'1311.6
2016-Jul-23 11:25N 34°11' W 119°46'1011.0
2016-Jul-23 10:33N 34°09' W 119°34'1311.0
2016-Jul-23 09:23N 34°05' W 119°20'1511.3
2016-Jul-23 08:06N 33°59' W 119°04'611.8
2016-Jul-23 07:33N 33°56' W 118°57'1212.1
2016-Jul-23 06:33N 33°51' W 118°44'29 9.7
2016-Jul-23 03:31N 33°44' W 118°09'3 3.0
2016-Jul-23 02:33N 33°44' W 118°13'2 2.3
2016-Jul-23 01:33N 33°43' W 118°11'6 5.7
2016-Jul-23 00:33N 33°38' W 118°14'6 5.9
2016-Jul-22 23:33N 33°36' W 118°21'6 6.2
2016-Jul-22 22:33N 33°40' W 118°27'7 6.5
2016-Jul-22 21:31N 33°43' W 118°34'6 6.6
2016-Jul-22 20:33N 33°46' W 118°41'7 6.6
2016-Jul-22 19:33N 33°49' W 118°48'6 6.4
2016-Jul-22 18:33N 33°53' W 118°54'7 6.5
2016-Jul-22 17:30N 33°56' W 119°02'6 6.8
2016-Jul-22 16:33N 33°59' W 119°09'7 7.1
2016-Jul-22 15:33N 34°02' W 119°16'7 7.4
2016-Jul-22 14:33N 34°04' W 119°25'7 7.2
2016-Jul-22 13:33N 34°07' W 119°33'8 7.5
2016-Jul-22 12:33N 34°09' W 119°42'7 7.3
2016-Jul-22 11:33N 34°11' W 119°50'7 6.9
2016-Jul-22 10:29N 34°12' W 119°59'6 6.4
2016-Jul-22 09:33N 34°14' W 120°06'7 6.2
2016-Jul-22 08:24N 34°16' W 120°14'5 5.6
2016-Jul-22 07:33N 34°17' W 120°19'18 5.7
2016-Jul-22 04:24N 34°24' W 120°39'12 6.5
2016-Jul-22 02:34N 34°34' W 120°48'7 6.9
2016-Jul-22 01:33N 34°40' W 120°52'7 7.2
2016-Jul-22 00:33N 34°47' W 120°56'8 6.7
2016-Jul-21 23:25N 34°53' W 121°01'6 6.6
2016-Jul-21 22:33N 34°58' W 121°04'7 6.6
2016-Jul-21 21:33N 35°04' W 121°08'7 6.9
2016-Jul-21 20:33N 35°10' W 121°12'7 6.9
2016-Jul-21 19:34N 35°16' W 121°16'7 6.6
2016-Jul-21 18:33N 35°22' W 121°20'7 6.7
2016-Jul-21 17:33N 35°27' W 121°25'7 6.5
2016-Jul-21 16:32N 35°33' W 121°30'6 6.5
2016-Jul-21 15:33N 35°38' W 121°34'7 6.6
2016-Jul-21 14:33N 35°43' W 121°39'7 6.7
2016-Jul-21 13:33N 35°48' W 121°44'7 6.9
2016-Jul-21 12:33N 35°54' W 121°49'7 6.9
2016-Jul-21 11:34N 35°60' W 121°54'7 6.7
2016-Jul-21 10:33N 36°05' W 121°58'7 6.8
2016-Jul-21 09:33N 36°11' W 122°04'7 6.5
2016-Jul-21 08:33N 36°16' W 122°09'7 6.7
2016-Jul-21 07:33N 36°21' W 122°13'7 6.5
2016-Jul-21 06:33N 36°26' W 122°19'6 6.1
2016-Jul-21 05:33N 36°31' W 122°23'6 5.8
2016-Jul-21 04:32N 36°36' W 122°28'6 6.0
2016-Jul-21 03:33N 36°41' W 122°32'7 6.5
2016-Jul-21 02:33N 36°46' W 122°36'6 6.6
2016-Jul-21 01:34N 36°51' W 122°41'7 6.9
2016-Jul-21 00:32N 36°57' W 122°46'7 7.1
2016-Jul-20 23:33N 37°03' W 122°51'7 6.7
2016-Jul-20 22:34N 37°09' W 122°55'7 6.6
2016-Jul-20 21:33N 37°15' W 122°59'7 6.5
2016-Jul-20 20:33N 37°20' W 123°04'6 6.4
2016-Jul-20 19:33N 37°25' W 123°09'7 6.6
2016-Jul-20 18:30N 37°31' W 123°13'8 6.5
2016-Jul-20 17:21N 37°37' W 123°19'5 6.6
2016-Jul-20 16:33N 37°41' W 123°22'7 6.9
2016-Jul-20 15:33N 37°47' W 123°27'7 6.6
2016-Jul-20 14:33N 37°54' W 123°29'6 6.0
2016-Jul-20 13:33N 37°59' W 123°32'6 5.7
2016-Jul-20 12:33N 38°05' W 123°34'6 5.5
2016-Jul-20 11:33N 38°10' W 123°36'5 5.1
2016-Jul-20 10:33N 38°15' W 123°38'5 5.2
2016-Jul-20 09:33N 38°20' W 123°40'6 5.6
2016-Jul-20 08:33N 38°26' W 123°41'6 5.8
2016-Jul-20 07:33N 38°31' W 123°43'9 5.9
2016-Jul-20 06:06N 38°40' W 123°45'  
2016-Jul-17 06:29N 45°12' W 124°10'12 6.3
2016-Jul-17 04:33N 45°24' W 124°09'6 6.3
2016-Jul-17 03:33N 45°31' W 124°09'6 6.3
2016-Jul-17 02:33N 45°37' W 124°09'6 6.0
2016-Jul-17 01:34N 45°43' W 124°09'6 5.9
2016-Jul-17 00:34N 45°49' W 124°09'6 6.1
2016-Jul-16 23:34N 45°55' W 124°09'6 6.2
2016-Jul-16 22:33N 46°01' W 124°09'6 6.0
2016-Jul-16 21:34N 46°07' W 124°10'6 6.0
2016-Jul-16 20:34N 46°13' W 124°08'5 5.5
2016-Jul-16 19:34N 46°15' W 124°01'6 5.6
2016-Jul-16 18:34N 46°12' W 123°55'5 4.9
2016-Jul-16 17:33N 46°12' W 123°48'1 1.2
2016-Jul-16 16:33N 46°13' W 123°46'8 7.6
2016-Jul-16 15:34N 46°15' W 123°36'8 7.6
2016-Jul-16 14:33N 46°13' W 123°25'8 7.8
2016-Jul-16 13:34N 46°09' W 123°16'9 8.8
2016-Jul-16 12:33N 46°09' W 123°03'5 5.0
2016-Jul-16 11:33N 46°06' W 122°57'0 0.0
2016-Jul-16 10:34N 46°06' W 122°57'0 0.0
2016-Jul-16 09:33N 46°06' W 122°57'0 0.0
2016-Jul-16 08:34N 46°06' W 122°57'0 0.0
2016-Jul-16 07:33N 46°06' W 122°57'0 0.0
2016-Jul-16 06:33N 46°06' W 122°57'0 0.0
2016-Jul-16 04:33N 46°06' W 122°57'0 0.0
2016-Jul-16 03:33N 46°06' W 122°57'0 0.0
2016-Jul-16 02:33N 46°06' W 122°57'0 0.0
2016-Jul-16 01:34N 46°06' W 122°57'0 0.0
2016-Jul-16 00:33N 46°06' W 122°57'0 0.0
2016-Jul-15 23:33N 46°06' W 122°57'0 0.0
2016-Jul-15 22:33N 46°06' W 122°57'0 0.0
2016-Jul-15 21:33N 46°06' W 122°57'0 0.0
2016-Jul-15 20:33N 46°06' W 122°57'0 0.0
2016-Jul-15 19:33N 46°06' W 122°57'0 0.0
2016-Jul-15 18:33N 46°06' W 122°57'0 0.0
2016-Jul-15 17:33N 46°06' W 122°57'0 0.0
2016-Jul-15 16:33N 46°06' W 122°57'  
Track history (hours):
 
Tides and Currents Weather Stations Pressure Air Temp Water Temp Dewpoint Dewpoint Depression Visibility Wind Speed Wind Dir Waves Ship Positions

Tecumseh

Owner: Sause Bros. Inc., COOS BAY, OR. More information available from US FCC via Universal Licensing System and Coast Guard Vessel Documentation Center.

Last reported at 2016-Jul-25 16:06 UTC. Time now 2016-Jul-26 21:48 UTC.
Position N 38°32' W 123°47'.

Length 90 m; draft 4.8 m.

Type: Towing. MMSI: 367133160.

Date/timePositionNaut miles runAvg speedWind from/ knotsBaromVisibWave heightAir tempDewpointWater temp
2016-Jul-25 16:06N 38°32' W 123°47'3 5.0
2016-Jul-25 15:32N 38°30' W 123°45'6 5.1
2016-Jul-25 14:23N 38°26' W 123°40'4 5.1
2016-Jul-25 13:33N 38°22' W 123°36'5 5.3
2016-Jul-25 12:33N 38°19' W 123°31'5 4.9
2016-Jul-25 11:33N 38°15' W 123°27'5 5.1
2016-Jul-25 10:33N 38°12' W 123°22'5 5.2
2016-Jul-25 09:33N 38°08' W 123°18'6 5.6
2016-Jul-25 08:32N 38°03' W 123°13'6 5.6
2016-Jul-25 07:33N 37°59' W 123°09'6 5.9
2016-Jul-25 06:33N 37°56' W 123°02'6 6.5
2016-Jul-25 05:33N 37°53' W 122°55'14 6.9
2016-Jul-25 03:33N 37°46' W 122°40'9 8.6
2016-Jul-25 02:33N 37°49' W 122°30'6 6.1
2016-Jul-25 01:33N 37°54' W 122°26'0 0.1
2016-Jul-25 00:30N 37°54' W 122°26'0 0.0
2016-Jul-24 23:30N 37°54' W 122°26'0 0.0
2016-Jul-24 21:18N 37°54' W 122°26'0 0.0
2016-Jul-24 20:30N 37°54' W 122°26'0 0.0
2016-Jul-24 19:27N 37°54' W 122°26'0 0.1
2016-Jul-24 18:34N 37°54' W 122°26'0 0.1
2016-Jul-24 17:32N 37°54' W 122°26'0 0.1
2016-Jul-24 16:34N 37°54' W 122°26'1 0.7
2016-Jul-24 15:33N 37°55' W 122°26'0 0.3
2016-Jul-24 14:34N 37°55' W 122°26'7 6.5
2016-Jul-24 13:34N 37°49' W 122°29'8 7.5
2016-Jul-24 12:30N 37°43' W 122°35'1010.3
2016-Jul-24 11:33N 37°33' W 122°35'1010.3
2016-Jul-24 10:33N 37°23' W 122°32'1010.3
2016-Jul-24 09:34N 37°13' W 122°28'1010.2
2016-Jul-24 08:33N 37°04' W 122°23'1010.1
2016-Jul-24 07:33N 36°55' W 122°17'10 9.9
2016-Jul-24 06:33N 36°46' W 122°12'1010.0
2016-Jul-24 05:33N 36°37' W 122°07'1010.0
2016-Jul-24 04:31N 36°27' W 122°02'9 9.6
2016-Jul-24 03:33N 36°18' W 121°58'10 9.6
2016-Jul-24 02:33N 36°12' W 121°49'1010.5
2016-Jul-24 01:33N 36°04' W 121°40'1310.9
2016-Jul-24 00:24N 35°54' W 121°31'910.7
2016-Jul-23 23:33N 35°47' W 121°25'1010.5
2016-Jul-23 22:33N 35°38' W 121°18'1110.7
2016-Jul-23 21:34N 35°29' W 121°11'1110.9
2016-Jul-23 20:33N 35°20' W 121°03'2210.6
2016-Jul-23 18:26N 35°02' W 120°46'910.7
2016-Jul-23 17:34N 34°53' W 120°44'1110.9
2016-Jul-23 16:34N 34°43' W 120°41'1110.8
2016-Jul-23 15:33N 34°32' W 120°38'1111.1
2016-Jul-23 14:33N 34°25' W 120°27'1212.2
2016-Jul-23 13:33N 34°20' W 120°13'1211.5
2016-Jul-23 12:33N 34°15' W 120°01'1311.6
2016-Jul-23 11:25N 34°11' W 119°46'1011.0
2016-Jul-23 10:33N 34°09' W 119°34'1311.0
2016-Jul-23 09:23N 34°05' W 119°20'1511.3
2016-Jul-23 08:06N 33°59' W 119°04'611.8
2016-Jul-23 07:33N 33°56' W 118°57'1212.1
2016-Jul-23 06:33N 33°51' W 118°44'29 9.7
2016-Jul-23 03:31N 33°44' W 118°09'3 3.0
2016-Jul-23 02:33N 33°44' W 118°13'2 2.3
2016-Jul-23 01:33N 33°43' W 118°11'6 5.7
2016-Jul-23 00:33N 33°38' W 118°14'6 5.9
2016-Jul-22 23:33N 33°36' W 118°21'6 6.2
2016-Jul-22 22:33N 33°40' W 118°27'7 6.5
2016-Jul-22 21:31N 33°43' W 118°34'6 6.6
2016-Jul-22 20:33N 33°46' W 118°41'7 6.6
2016-Jul-22 19:33N 33°49' W 118°48'6 6.4
2016-Jul-22 18:33N 33°53' W 118°54'7 6.5
2016-Jul-22 17:30N 33°56' W 119°02'6 6.8
2016-Jul-22 16:33N 33°59' W 119°09'7 7.1
2016-Jul-22 15:33N 34°02' W 119°16'7 7.4
2016-Jul-22 14:33N 34°04' W 119°25'7 7.2
2016-Jul-22 13:33N 34°07' W 119°33'8 7.5
2016-Jul-22 12:33N 34°09' W 119°42'7 7.3
2016-Jul-22 11:33N 34°11' W 119°50'7 6.9
2016-Jul-22 10:29N 34°12' W 119°59'6 6.4
2016-Jul-22 09:33N 34°14' W 120°06'7 6.2
2016-Jul-22 08:24N 34°16' W 120°14'5 5.6
2016-Jul-22 07:33N 34°17' W 120°19'18 5.7
2016-Jul-22 04:24N 34°24' W 120°39'12 6.5
2016-Jul-22 02:34N 34°34' W 120°48'7 6.9
2016-Jul-22 01:33N 34°40' W 120°52'7 7.2
2016-Jul-22 00:33N 34°47' W 120°56'8 6.7
2016-Jul-21 23:25N 34°53' W 121°01'6 6.6
2016-Jul-21 22:33N 34°58' W 121°04'7 6.6
2016-Jul-21 21:33N 35°04' W 121°08'7 6.9
2016-Jul-21 20:33N 35°10' W 121°12'7 6.9
2016-Jul-21 19:34N 35°16' W 121°16'7 6.6
2016-Jul-21 18:33N 35°22' W 121°20'7 6.7
2016-Jul-21 17:33N 35°27' W 121°25'7 6.5
2016-Jul-21 16:32N 35°33' W 121°30'6 6.5
2016-Jul-21 15:33N 35°38' W 121°34'7 6.6
2016-Jul-21 14:33N 35°43' W 121°39'7 6.7
2016-Jul-21 13:33N 35°48' W 121°44'7 6.9
2016-Jul-21 12:33N 35°54' W 121°49'7 6.9
2016-Jul-21 11:34N 35°60' W 121°54'7 6.7
2016-Jul-21 10:33N 36°05' W 121°58'7 6.8
2016-Jul-21 09:33N 36°11' W 122°04'7 6.5
2016-Jul-21 08:33N 36°16' W 122°09'7 6.7
2016-Jul-21 07:33N 36°21' W 122°13'7 6.5
2016-Jul-21 06:33N 36°26' W 122°19'6 6.1
2016-Jul-21 05:33N 36°31' W 122°23'6 5.8
2016-Jul-21 04:32N 36°36' W 122°28'6 6.0
2016-Jul-21 03:33N 36°41' W 122°32'7 6.5
2016-Jul-21 02:33N 36°46' W 122°36'6 6.6
2016-Jul-21 01:34N 36°51' W 122°41'7 6.9
2016-Jul-21 00:32N 36°57' W 122°46'7 7.1
2016-Jul-20 23:33N 37°03' W 122°51'7 6.7
2016-Jul-20 22:34N 37°09' W 122°55'7 6.6
2016-Jul-20 21:33N 37°15' W 122°59'7 6.5
2016-Jul-20 20:33N 37°20' W 123°04'6 6.4
2016-Jul-20 19:33N 37°25' W 123°09'7 6.6
2016-Jul-20 18:30N 37°31' W 123°13'8 6.5
2016-Jul-20 17:21N 37°37' W 123°19'5 6.6
2016-Jul-20 16:33N 37°41' W 123°22'7 6.9
2016-Jul-20 15:33N 37°47' W 123°27'7 6.6
2016-Jul-20 14:33N 37°54' W 123°29'6 6.0
2016-Jul-20 13:33N 37°59' W 123°32'6 5.7
2016-Jul-20 12:33N 38°05' W 123°34'6 5.5
2016-Jul-20 11:33N 38°10' W 123°36'5 5.1
2016-Jul-20 10:33N 38°15' W 123°38'5 5.2
2016-Jul-20 09:33N 38°20' W 123°40'6 5.6
2016-Jul-20 08:33N 38°26' W 123°41'6 5.8
2016-Jul-20 07:33N 38°31' W 123°43'9 5.9
2016-Jul-20 06:06N 38°40' W 123°45'  
2016-Jul-17 06:29N 45°12' W 124°10'12 6.3
2016-Jul-17 04:33N 45°24' W 124°09'6 6.3
2016-Jul-17 03:33N 45°31' W 124°09'6 6.3
2016-Jul-17 02:33N 45°37' W 124°09'6 6.0
2016-Jul-17 01:34N 45°43' W 124°09'6 5.9
2016-Jul-17 00:34N 45°49' W 124°09'6 6.1
2016-Jul-16 23:34N 45°55' W 124°09'6 6.2
2016-Jul-16 22:33N 46°01' W 124°09'6 6.0
2016-Jul-16 21:34N 46°07' W 124°10'6 6.0
2016-Jul-16 20:34N 46°13' W 124°08'5 5.5
2016-Jul-16 19:34N 46°15' W 124°01'6 5.6
2016-Jul-16 18:34N 46°12' W 123°55'5 4.9
2016-Jul-16 17:33N 46°12' W 123°48'1 1.2
2016-Jul-16 16:33N 46°13' W 123°46'8 7.6
2016-Jul-16 15:34N 46°15' W 123°36'8 7.6
2016-Jul-16 14:33N 46°13' W 123°25'8 7.8
2016-Jul-16 13:34N 46°09' W 123°16'9 8.8
2016-Jul-16 12:33N 46°09' W 123°03'5 5.0
2016-Jul-16 11:33N 46°06' W 122°57'0 0.0
2016-Jul-16 10:34N 46°06' W 122°57'0 0.0
2016-Jul-16 09:33N 46°06' W 122°57'0 0.0
2016-Jul-16 08:34N 46°06' W 122°57'0 0.0
2016-Jul-16 07:33N 46°06' W 122°57'0 0.0
2016-Jul-16 06:33N 46°06' W 122°57'0 0.0
2016-Jul-16 04:33N 46°06' W 122°57'0 0.0
2016-Jul-16 03:33N 46°06' W 122°57'0 0.0
2016-Jul-16 02:33N 46°06' W 122°57'0 0.0
2016-Jul-16 01:34N 46°06' W 122°57'0 0.0
2016-Jul-16 00:33N 46°06' W 122°57'0 0.0
2016-Jul-15 23:33N 46°06' W 122°57'0 0.0
2016-Jul-15 22:33N 46°06' W 122°57'0 0.0
2016-Jul-15 21:33N 46°06' W 122°57'0 0.0
2016-Jul-15 20:33N 46°06' W 122°57'0 0.0
2016-Jul-15 19:33N 46°06' W 122°57'0 0.0
2016-Jul-15 18:33N 46°06' W 122°57'0 0.0
2016-Jul-15 17:33N 46°06' W 122°57'0 0.0
2016-Jul-15 16:33N 46°06' W 122°57'  

Dump ship's entire track history